Station History

Weather Underground - logo

Station Historical Data
Daily Summary for February 8, 2018 Units:  English    Metric   Both
« Previous Day
Next Day »
Daily Weekly Monthly Yearly Custom
  High: Low: Average:
Temperature: 75.4 °F 43.6 °F 57.7 °F
Dew Point: 53.6 °F 41.0 °F 47.3 °F
Humidity: 91 % 39 % 71 %
Wind Speed: 8.1 mph 0.0 mph 0.5 mph
Wind Gust: 8.1 mph - -
Wind:- - WSW
Pressure: 30.26 in 30.08 in -
Precipitation: 0.00 in    
Historical Graphs
 
 
Tabular Data for February 8, 2018
Time Temperature Dew Point Pressure Wind Wind Speed Wind Gust Humidity Rainfall Rate (Hourly)
00:00 50.8 °F 45.8 °F 30.23 in SE 1.2 mph   83 % 0.00 in
00:05 50.7 °F 45.7 °F 30.23 in Calm     83 % 0.00 in
00:10 50.3 °F 45.3 °F 30.24 in Calm     83 % 0.00 in
00:15 49.8 °F 45.2 °F 30.24 in Calm     84 % 0.00 in
00:20 49.5 °F 45.2 °F 30.24 in Calm     85 % 0.00 in
00:25 49.3 °F 45.3 °F 30.24 in Calm     86 % 0.00 in
00:30 49.1 °F 45.1 °F 30.23 in Calm     86 % 0.00 in
00:35 49.3 °F 45.3 °F 30.23 in Calm     86 % 0.00 in
00:40 49.3 °F 45.0 °F 30.23 in Calm     85 % 0.00 in
00:45 49.2 °F 44.9 °F 30.23 in Calm     85 % 0.00 in
00:50 49.3 °F 45.0 °F 30.23 in Calm     85 % 0.00 in
00:55 49.5 °F 45.2 °F 30.23 in Calm     85 % 0.00 in
01:00 49.6 °F 45.0 °F 30.23 in Calm     84 % 0.00 in
01:05 49.6 °F 45.0 °F 30.23 in Calm     84 % 0.00 in
01:10 49.4 °F 44.8 °F 30.23 in Calm     84 % 0.00 in
01:15 49.1 °F 44.5 °F 30.24 in Calm     84 % 0.00 in
01:21 48.9 °F 44.6 °F 30.24 in Calm     85 % 0.00 in
01:26 48.8 °F 44.5 °F 30.24 in Calm     85 % 0.00 in
01:31 48.7 °F 44.7 °F 30.24 in Calm     86 % 0.00 in
01:36 48.5 °F 44.5 °F 30.24 in Calm     86 % 0.00 in
01:41 48.4 °F 44.7 °F 30.24 in Calm     87 % 0.00 in
01:46 48.3 °F 44.6 °F 30.23 in Calm     87 % 0.00 in
01:51 48.0 °F 44.3 °F 30.23 in Calm     87 % 0.00 in
01:56 47.9 °F 44.2 °F 30.23 in Calm     87 % 0.00 in
02:01 47.8 °F 44.4 °F 30.23 in Calm     88 % 0.00 in
02:06 47.6 °F 44.2 °F 30.23 in SE 8.1 mph 8.1 mph 88 % 0.00 in
02:11 47.5 °F 44.4 °F 30.23 in Calm     89 % 0.00 in
02:16 47.7 °F 44.6 °F 30.23 in Calm     89 % 0.00 in
02:21 47.9 °F 44.5 °F 30.23 in Calm     88 % 0.00 in
02:26 47.9 °F 44.5 °F 30.22 in Calm     88 % 0.00 in
02:31 47.9 °F 44.5 °F 30.22 in Calm     88 % 0.00 in
02:36 47.7 °F 44.3 °F 30.23 in Calm     88 % 0.00 in
02:41 47.6 °F 44.2 °F 30.22 in Calm     88 % 0.00 in
02:46 47.6 °F 44.2 °F 30.22 in Calm     88 % 0.00 in
02:51 47.5 °F 44.1 °F 30.22 in Calm     88 % 0.00 in
02:56 47.4 °F 44.0 °F 30.22 in Calm     88 % 0.00 in
03:01 47.3 °F 43.9 °F 30.22 in Calm     88 % 0.00 in
03:06 47.2 °F 43.8 °F 30.22 in Calm     88 % 0.00 in
03:11 47.2 °F 43.8 °F 30.22 in Calm     88 % 0.00 in
03:16 47.4 °F 44.0 °F 30.22 in Calm     88 % 0.00 in
03:21 47.4 °F 44.0 °F 30.21 in Calm     88 % 0.00 in
03:26 47.3 °F 43.9 °F 30.21 in Calm     88 % 0.00 in
03:31 47.0 °F 43.6 °F 30.21 in Calm     88 % 0.00 in
03:36 46.5 °F 42.5 °F 30.22 in Calm     86 % 0.00 in
03:41 46.0 °F 42.3 °F 30.22 in Calm     87 % 0.00 in
03:46 45.7 °F 42.3 °F 30.22 in Calm     88 % 0.00 in
03:51 45.7 °F 42.9 °F 30.22 in Calm     90 % 0.00 in
03:56 45.4 °F 42.1 °F 30.22 in Calm     88 % 0.00 in
04:01 45.0 °F 41.7 °F 30.22 in Calm     88 % 0.00 in
04:06 44.5 °F 41.5 °F 30.22 in Calm     89 % 0.00 in
04:11 44.2 °F 41.2 °F 30.22 in Calm     89 % 0.00 in
04:16 44.1 °F 41.4 °F 30.22 in Calm     90 % 0.00 in
04:21 43.9 °F 41.2 °F 30.22 in Calm     90 % 0.00 in
04:26 43.9 °F 41.2 °F 30.22 in SE 1.2 mph 1.2 mph 90 % 0.00 in
04:31 43.9 °F 41.2 °F 30.23 in Calm     90 % 0.00 in
04:36 43.9 °F 41.2 °F 30.23 in Calm     90 % 0.00 in
04:41 44.1 °F 41.6 °F 30.23 in Calm     91 % 0.00 in
04:46 44.0 °F 41.3 °F 30.23 in Calm     90 % 0.00 in
04:51 43.7 °F 41.0 °F 30.23 in Calm     90 % 0.00 in
04:56 43.6 °F 41.1 °F 30.23 in Calm     91 % 0.00 in
05:01 43.7 °F 41.2 °F 30.23 in Calm     91 % 0.00 in
05:06 43.9 °F 41.4 °F 30.23 in Calm     91 % 0.00 in
05:11 44.2 °F 41.7 °F 30.23 in Calm     91 % 0.00 in
05:16 44.5 °F 42.0 °F 30.23 in Calm   0.1 mph 91 % 0.00 in
05:21 44.4 °F 41.7 °F 30.23 in Calm     90 % 0.00 in
05:26 44.3 °F 41.6 °F 30.23 in Calm     90 % 0.00 in
05:31 44.4 °F 41.7 °F 30.23 in Calm     90 % 0.00 in
05:36 44.6 °F 41.6 °F 30.23 in ESE 1.2 mph   89 % 0.00 in
05:41 44.6 °F 41.6 °F 30.23 in Calm     89 % 0.00 in
05:46 44.7 °F 41.7 °F 30.24 in Calm     89 % 0.00 in
05:51 44.7 °F 41.7 °F 30.24 in Calm     89 % 0.00 in
05:56 44.7 °F 41.7 °F 30.24 in Calm     89 % 0.00 in
06:01 44.5 °F 41.5 °F 30.24 in Calm     89 % 0.00 in
06:06 44.4 °F 41.4 °F 30.24 in Calm     89 % 0.00 in
06:11 44.5 °F 41.7 °F 30.24 in Calm     90 % 0.00 in
06:16 44.5 °F 41.7 °F 30.24 in ESE 1.2 mph 1.2 mph 90 % 0.00 in
06:21 44.5 °F 41.7 °F 30.24 in Calm     90 % 0.00 in
06:26 44.5 °F 41.7 °F 30.24 in ESE 1.2 mph 1.2 mph 90 % 0.00 in
06:31 44.6 °F 41.8 °F 30.24 in Calm     90 % 0.00 in
06:36 44.7 °F 42.2 °F 30.25 in Calm     91 % 0.00 in
06:41 44.8 °F 42.3 °F 30.24 in Calm     91 % 0.00 in
06:46 44.8 °F 42.0 °F 30.25 in Calm     90 % 0.00 in
06:51 44.7 °F 42.2 °F 30.25 in Calm     91 % 0.00 in
06:57 44.7 °F 42.2 °F 30.25 in Calm     91 % 0.00 in
07:01 45.0 °F 42.5 °F 30.25 in Calm     91 % 0.00 in
07:07 45.2 °F 42.7 °F 30.25 in Calm     91 % 0.00 in
07:12 45.3 °F 42.8 °F 30.25 in Calm     91 % 0.00 in
07:17 45.5 °F 42.7 °F 30.25 in Calm     90 % 0.00 in
07:22 45.7 °F 42.9 °F 30.25 in Calm     90 % 0.00 in
07:27 45.9 °F 43.1 °F 30.25 in Calm     90 % 0.00 in
07:32 46.0 °F 43.2 °F 30.25 in Calm     90 % 0.00 in
07:37 46.2 °F 43.4 °F 30.25 in Calm     90 % 0.00 in
07:42 46.6 °F 43.8 °F 30.26 in Calm     90 % 0.00 in
07:47 46.9 °F 43.8 °F 30.26 in Calm     89 % 0.00 in
07:52 47.7 °F 44.6 °F 30.26 in Calm     89 % 0.00 in
07:57 48.8 °F 45.4 °F 30.25 in Calm     88 % 0.00 in
08:02 49.7 °F 45.7 °F 30.25 in Calm     86 % 0.00 in
08:07 50.6 °F 46.6 °F 30.26 in Calm     86 % 0.00 in
08:12 51.7 °F 47.0 °F 30.26 in Calm     84 % 0.00 in
08:17 52.6 °F 46.9 °F 30.26 in Calm     81 % 0.00 in
08:22 53.4 °F 47.4 °F 30.26 in Calm     80 % 0.00 in
08:27 54.3 °F 47.9 °F 30.26 in Calm     79 % 0.00 in
08:32 55.3 °F 48.2 °F 30.26 in Calm     77 % 0.00 in
08:37 56.1 °F 48.3 °F 30.26 in Calm     75 % 0.00 in
08:42 56.6 °F 48.4 °F 30.26 in Calm     74 % 0.00 in
08:47 57.0 °F 48.8 °F 30.26 in SE 1.2 mph   74 % 0.00 in
08:52 57.7 °F 48.7 °F 30.25 in Calm     72 % 0.00 in
08:57 58.2 °F 48.5 °F 30.25 in Calm     70 % 0.00 in
09:02 59.0 °F 48.8 °F 30.25 in ESE 1.2 mph 1.2 mph 69 % 0.00 in
09:07 59.6 °F 49.0 °F 30.26 in East 1.2 mph 1.2 mph 68 % 0.00 in
09:12 60.2 °F 49.6 °F 30.26 in SE 1.2 mph   68 % 0.00 in
09:17 60.8 °F 49.0 °F 30.25 in ESE 3.5 mph 3.5 mph 65 % 0.00 in
09:22 61.2 °F 48.9 °F 30.25 in ESE 1.2 mph   64 % 0.00 in
09:27 61.7 °F 49.0 °F 30.25 in ESE 3.5 mph 3.5 mph 63 % 0.00 in
09:32 62.0 °F 48.8 °F 30.25 in South 2.3 mph 2.3 mph 62 % 0.00 in
09:37 62.5 °F 48.9 °F 30.25 in SE 3.5 mph 3.5 mph 61 % 0.00 in
09:42 62.8 °F 49.1 °F 30.25 in South 3.5 mph 3.5 mph 61 % 0.00 in
09:47 63.3 °F 48.7 °F 30.25 in SSE 3.5 mph 3.5 mph 59 % 0.00 in
09:52 63.4 °F 49.3 °F 30.24 in SSE 3.5 mph 3.5 mph 60 % 0.00 in
09:57 63.9 °F 50.2 °F 30.24 in SE 1.0 mph 1.0 mph 61 % 0.00 in
10:02 64.5 °F 49.8 °F 30.24 in East 2.3 mph 2.3 mph 59 % 0.00 in
10:07 64.7 °F 49.6 °F 30.24 in SSE 3.5 mph 3.5 mph 58 % 0.00 in
10:12 64.8 °F 49.7 °F 30.24 in NNW 3.5 mph 3.5 mph 58 % 0.00 in
10:17 64.4 °F 49.8 °F 30.24 in NNW 1.2 mph 1.2 mph 59 % 0.00 in
10:22 64.6 °F 50.8 °F 30.24 in SSE 2.3 mph   61 % 0.00 in
10:27 64.8 °F 50.1 °F 30.24 in SE 1.2 mph 1.2 mph 59 % 0.00 in
10:32 65.2 °F 50.0 °F 30.24 in NW 1.2 mph 1.2 mph 58 % 0.00 in
10:37 65.3 °F 50.6 °F 30.24 in South 3.5 mph 3.5 mph 59 % 0.00 in
10:42 65.4 °F 49.8 °F 30.24 in NNW 2.3 mph 2.3 mph 57 % 0.00 in
10:47 65.0 °F 49.4 °F 30.24 in NE 2.3 mph 2.3 mph 57 % 0.00 in
10:52 65.3 °F 50.1 °F 30.23 in NW 2.3 mph 2.3 mph 58 % 0.00 in
10:57 65.4 °F 50.7 °F 30.23 in SSE 1.2 mph 1.2 mph 59 % 0.00 in
11:02 66.2 °F 50.5 °F 30.23 in SSE 2.3 mph 2.3 mph 57 % 0.00 in
11:07 67.1 °F 51.4 °F 30.23 in East 1.2 mph   57 % 0.00 in
11:12 67.7 °F 51.4 °F 30.23 in SE 1.2 mph   56 % 0.00 in
11:17 67.3 °F 50.6 °F 30.22 in NNW 1.2 mph 1.2 mph 55 % 0.00 in
11:22 66.9 °F 50.2 °F 30.22 in NW 3.5 mph 3.5 mph 55 % 0.00 in
11:27 67.1 °F 51.4 °F 30.22 in NE 1.0 mph   57 % 0.00 in
11:32 67.3 °F 50.6 °F 30.22 in NW 1.2 mph 1.2 mph 55 % 0.00 in
11:37 67.1 °F 50.4 °F 30.22 in WNW 2.3 mph 2.3 mph 55 % 0.00 in
11:42 67.5 °F 51.2 °F 30.22 in NW 2.3 mph 2.3 mph 56 % 0.00 in
11:47 67.9 °F 51.6 °F 30.21 in WNW 3.0 mph 3.0 mph 56 % 0.00 in
11:52 68.1 °F 52.3 °F 30.21 in West 1.2 mph 1.2 mph 57 % 0.00 in
11:57 68.7 °F 52.8 °F 30.21 in Calm     57 % 0.00 in
12:02 69.2 °F 51.8 °F 30.20 in NW 1.2 mph 1.2 mph 54 % 0.00 in
12:07 69.1 °F 51.8 °F 30.20 in NW 2.3 mph   54 % 0.00 in
12:12 69.6 °F 52.7 °F 30.20 in Calm     55 % 0.00 in
12:17 70.6 °F 53.1 °F 30.19 in NW 1.2 mph   54 % 0.00 in
12:22 70.7 °F 52.7 °F 30.19 in NW 3.5 mph 3.5 mph 53 % 0.00 in
12:27 70.3 °F 51.8 °F 30.19 in WNW 2.3 mph 2.3 mph 52 % 0.00 in
12:32 70.2 °F 52.8 °F 30.18 in Calm   0.3 mph 54 % 0.00 in
12:37 70.5 °F 52.5 °F 30.18 in Calm     53 % 0.00 in
12:42 71.1 °F 52.6 °F 30.17 in WSW 2.3 mph 2.3 mph 52 % 0.00 in
12:47 71.2 °F 52.1 °F 30.17 in NW 2.3 mph 2.3 mph 51 % 0.00 in
12:52 71.4 °F 52.3 °F 30.17 in NW 1.2 mph 1.2 mph 51 % 0.00 in
12:57 71.8 °F 52.2 °F 30.16 in WNW 1.2 mph   50 % 0.00 in
13:02 72.3 °F 52.6 °F 30.16 in Calm   0.9 mph 50 % 0.00 in
13:07 72.4 °F 52.7 °F 30.16 in NW 1.2 mph 1.2 mph 50 % 0.00 in
13:13 72.7 °F 52.4 °F 30.15 in NNW 1.2 mph 1.2 mph 49 % 0.00 in
13:18 73.1 °F 52.8 °F 30.15 in Calm     49 % 0.00 in
13:23 73.4 °F 53.6 °F 30.14 in Calm     50 % 0.00 in
13:28 73.3 °F 52.4 °F 30.14 in NW 2.3 mph 2.3 mph 48 % 0.00 in
13:33 73.4 °F 52.5 °F 30.14 in NW 2.3 mph 2.3 mph 48 % 0.00 in
13:38 73.5 °F 52.0 °F 30.13 in Calm     47 % 0.00 in
13:43 73.6 °F 51.5 °F 30.13 in NW 1.2 mph 1.2 mph 46 % 0.00 in
13:48 73.7 °F 51.0 °F 30.13 in WNW 1.2 mph 1.2 mph 45 % 0.00 in
13:53 74.0 °F 51.3 °F 30.12 in NNW 2.3 mph 2.3 mph 45 % 0.00 in
13:58 73.9 °F 50.6 °F 30.12 in Calm     44 % 0.00 in
14:03 74.2 °F 51.5 °F 30.12 in WSW 1.2 mph 1.2 mph 45 % 0.00 in
14:08 74.5 °F 51.8 °F 30.12 in NW 2.3 mph 2.3 mph 45 % 0.00 in
14:13 74.6 °F 51.9 °F 30.11 in NW 3.5 mph 3.5 mph 45 % 0.00 in
14:18 74.5 °F 50.5 °F 30.11 in NW 1.2 mph 1.2 mph 43 % 0.00 in
14:23 74.5 °F 49.2 °F 30.11 in NW 1.2 mph 1.2 mph 41 % 0.00 in
14:28 74.6 °F 48.7 °F 30.11 in WNW 1.0 mph 1.0 mph 40 % 0.00 in
14:33 74.5 °F 49.2 °F 30.10 in Calm     41 % 0.00 in
14:38 75.0 °F 49.7 °F 30.10 in Calm     41 % 0.00 in
14:43 75.3 °F 50.0 °F 30.10 in NW 1.0 mph 1.0 mph 41 % 0.00 in
14:48 75.3 °F 50.6 °F 30.09 in Calm     42 % 0.00 in
14:53 75.4 °F 51.3 °F 30.09 in Calm     43 % 0.00 in
14:58 75.4 °F 50.7 °F 30.09 in Calm     42 % 0.00 in
15:03 75.3 °F 50.0 °F 30.09 in Calm     41 % 0.00 in
15:08 75.2 °F 49.9 °F 30.09 in Calm     41 % 0.00 in
15:13 75.1 °F 49.1 °F 30.08 in NW 1.2 mph   40 % 0.00 in
15:18 75.0 °F 49.7 °F 30.09 in Calm     41 % 0.00 in
15:23 75.0 °F 50.3 °F 30.09 in NW 1.2 mph 1.2 mph 42 % 0.00 in
15:28 74.8 °F 49.5 °F 30.08 in NW 1.2 mph 1.2 mph 41 % 0.00 in
15:33 74.5 °F 49.2 °F 30.08 in WSW 1.2 mph   41 % 0.00 in
15:38 74.3 °F 48.4 °F 30.08 in NW 1.2 mph   40 % 0.00 in
15:43 74.3 °F 48.4 °F 30.08 in West 1.2 mph 1.2 mph 40 % 0.00 in
15:48 74.2 °F 47.6 °F 30.08 in WNW 1.2 mph 1.2 mph 39 % 0.00 in
15:53 74.2 °F 47.6 °F 30.08 in NNW 1.2 mph 1.2 mph 39 % 0.00 in
15:58 74.2 °F 48.3 °F 30.08 in Calm   0.1 mph 40 % 0.00 in
16:03 74.1 °F 49.5 °F 30.08 in Calm     42 % 0.00 in
16:08 73.9 °F 50.0 °F 30.08 in NW 1.2 mph 1.2 mph 43 % 0.00 in
16:13 73.8 °F 49.3 °F 30.08 in WNW 1.2 mph 1.2 mph 42 % 0.00 in
16:18 73.7 °F 49.2 °F 30.08 in WNW 1.2 mph   42 % 0.00 in
16:20 73.7 °F 49.2 °F 30.08 in Calm     42 % 0.00 in
16:25 73.6 °F 49.1 °F 30.08 in WNW 1.2 mph 1.2 mph 42 % 0.00 in
16:30 73.5 °F 49.6 °F 30.08 in WNW 1.2 mph 1.2 mph 43 % 0.00 in
16:35 73.2 °F 49.4 °F 30.09 in WNW 1.2 mph   43 % 0.00 in
16:40 73.1 °F 50.5 °F 30.08 in Calm     45 % 0.00 in
16:45 72.7 °F 50.7 °F 30.08 in Calm     46 % 0.00 in
16:50 72.4 °F 51.0 °F 30.09 in Calm     47 % 0.00 in
16:55 72.0 °F 51.8 °F 30.09 in Calm     49 % 0.00 in
17:00 71.6 °F 52.0 °F 30.09 in Calm     50 % 0.00 in
17:05 71.1 °F 51.5 °F 30.09 in Calm     50 % 0.00 in
17:10 70.6 °F 51.6 °F 30.09 in Calm     51 % 0.00 in
17:15 70.1 °F 51.7 °F 30.09 in Calm     52 % 0.00 in
17:20 69.6 °F 51.2 °F 30.09 in Calm     52 % 0.00 in
17:25 69.2 °F 51.3 °F 30.09 in Calm     53 % 0.00 in
17:30 68.7 °F 50.9 °F 30.09 in Calm     53 % 0.00 in
17:35 68.1 °F 50.8 °F 30.09 in Calm     54 % 0.00 in
17:40 67.3 °F 50.6 °F 30.09 in Calm     55 % 0.00 in
17:45 66.8 °F 50.6 °F 30.09 in Calm     56 % 0.00 in
17:50 66.4 °F 50.7 °F 30.09 in Calm     57 % 0.00 in
17:55 65.6 °F 50.4 °F 30.09 in Calm     58 % 0.00 in
18:00 64.9 °F 51.1 °F 30.09 in Calm     61 % 0.00 in
18:05 64.3 °F 51.0 °F 30.09 in Calm     62 % 0.00 in
18:10 63.6 °F 51.6 °F 30.09 in Calm     65 % 0.00 in
18:15 63.0 °F 51.5 °F 30.09 in Calm     66 % 0.00 in
18:20 62.5 °F 51.4 °F 30.09 in Calm     67 % 0.00 in
18:25 61.8 °F 50.7 °F 30.10 in Calm     67 % 0.00 in
18:30 61.3 °F 50.6 °F 30.10 in Calm     68 % 0.00 in
18:35 61.0 °F 50.8 °F 30.10 in Calm     69 % 0.00 in
18:40 60.6 °F 50.8 °F 30.10 in Calm     70 % 0.00 in
18:45 60.4 °F 50.6 °F 30.10 in Calm     70 % 0.00 in
18:50 59.9 °F 50.1 °F 30.10 in Calm     70 % 0.00 in
18:55 59.4 °F 50.0 °F 30.10 in Calm     71 % 0.00 in
19:00 59.0 °F 50.0 °F 30.10 in Calm     72 % 0.00 in
19:05 58.5 °F 50.2 °F 30.10 in Calm     74 % 0.00 in
19:10 58.2 °F 50.0 °F 30.10 in Calm     74 % 0.00 in
19:15 57.8 °F 49.9 °F 30.10 in Calm     75 % 0.00 in
19:20 57.7 °F 50.2 °F 30.11 in Calm     76 % 0.00 in
19:25 57.6 °F 49.7 °F 30.10 in Calm     75 % 0.00 in
19:30 57.4 °F 49.5 °F 30.11 in Calm     75 % 0.00 in
19:35 57.1 °F 49.2 °F 30.11 in Calm     75 % 0.00 in
19:40 57.0 °F 48.8 °F 30.10 in Calm     74 % 0.00 in
19:46 57.6 °F 48.6 °F 30.11 in Calm     72 % 0.00 in
19:51 57.8 °F 48.5 °F 30.11 in Calm     71 % 0.00 in
19:56 57.7 °F 48.4 °F 30.11 in Calm     71 % 0.00 in
20:01 57.9 °F 48.2 °F 30.11 in Calm     70 % 0.00 in
20:06 57.9 °F 48.2 °F 30.11 in Calm     70 % 0.00 in
20:11 57.8 °F 47.7 °F 30.11 in Calm     69 % 0.00 in
20:16 57.6 °F 47.5 °F 30.11 in Calm     69 % 0.00 in
20:21 57.4 °F 47.7 °F 30.11 in Calm     70 % 0.00 in
20:23 57.2 °F 47.5 °F 30.11 in Calm     70 % 0.00 in
20:28 56.7 °F 47.4 °F 30.11 in Calm     71 % 0.00 in
20:33 56.3 °F 47.4 °F 30.10 in Calm     72 % 0.00 in
20:38 55.9 °F 47.7 °F 30.10 in Calm     74 % 0.00 in
20:43 55.6 °F 47.4 °F 30.10 in Calm     74 % 0.00 in
20:48 55.4 °F 48.0 °F 30.10 in Calm     76 % 0.00 in
20:53 55.1 °F 48.0 °F 30.10 in Calm     77 % 0.00 in
20:58 54.9 °F 47.8 °F 30.10 in Calm     77 % 0.00 in
21:03 54.8 °F 47.7 °F 30.11 in Calm     77 % 0.00 in
21:08 54.6 °F 47.5 °F 30.10 in Calm     77 % 0.00 in
21:13 54.3 °F 47.2 °F 30.10 in Calm     77 % 0.00 in
21:18 54.0 °F 47.3 °F 30.10 in Calm     78 % 0.00 in
21:23 53.6 °F 46.9 °F 30.11 in Calm     78 % 0.00 in
21:28 53.2 °F 47.2 °F 30.11 in Calm     80 % 0.00 in
21:33 52.8 °F 46.8 °F 30.10 in Calm     80 % 0.00 in
21:38 52.4 °F 46.7 °F 30.10 in Calm     81 % 0.00 in
21:43 52.1 °F 46.8 °F 30.10 in Calm     82 % 0.00 in
21:48 51.8 °F 46.5 °F 30.10 in Calm     82 % 0.00 in
21:53 51.6 °F 46.6 °F 30.11 in Calm     83 % 0.00 in
21:58 51.3 °F 46.3 °F 30.11 in Calm     83 % 0.00 in
22:03 51.1 °F 46.4 °F 30.10 in Calm     84 % 0.00 in
22:08 51.0 °F 46.3 °F 30.11 in Calm     84 % 0.00 in
22:13 51.2 °F 46.5 °F 30.11 in Calm     84 % 0.00 in
22:18 51.4 °F 46.4 °F 30.11 in Calm     83 % 0.00 in
22:23 51.3 °F 46.0 °F 30.11 in Calm     82 % 0.00 in
22:28 51.4 °F 46.4 °F 30.11 in Calm     83 % 0.00 in
22:33 51.0 °F 45.7 °F 30.11 in Calm     82 % 0.00 in
22:39 50.9 °F 46.2 °F 30.11 in Calm     84 % 0.00 in
22:44 51.1 °F 46.4 °F 30.11 in Calm     84 % 0.00 in
22:49 51.0 °F 46.3 °F 30.12 in Calm     84 % 0.00 in
22:54 50.9 °F 46.2 °F 30.12 in Calm     84 % 0.00 in
22:59 50.7 °F 46.0 °F 30.12 in Calm     84 % 0.00 in
23:04 50.3 °F 45.6 °F 30.12 in Calm     84 % 0.00 in
23:09 50.0 °F 45.4 °F 30.12 in Calm     84 % 0.00 in
23:14 49.7 °F 45.4 °F 30.12 in Calm     85 % 0.00 in
23:19 49.4 °F 45.1 °F 30.12 in Calm     85 % 0.00 in
23:24 49.3 °F 45.3 °F 30.12 in Calm     86 % 0.00 in
23:29 49.2 °F 45.2 °F 30.12 in Calm     86 % 0.00 in
23:34 49.2 °F 45.5 °F 30.12 in Calm     87 % 0.00 in
23:39 49.0 °F 45.3 °F 30.12 in Calm     87 % 0.00 in
23:44 48.9 °F 45.2 °F 30.12 in Calm     87 % 0.00 in
23:49 48.8 °F 45.1 °F 30.11 in Calm     87 % 0.00 in
23:54 48.7 °F 45.0 °F 30.11 in Calm     87 % 0.00 in
23:59 48.9 °F 45.2 °F 30.11 in Calm     87 % 0.00 in
Park Place, Exeter, Tulare County, California, USA
Compliments of Weather Underground - 2.75 mb